Terminal Aerodrome Forecast
Issued by NWS

Home | Current Version | Previous Version | Text Only | Print | Product List | Glossary On
Versions: 1 2 3 4 5 6 7 8 9 10 11 12 13 14 15 16 17 18 19 20 21 22 23
000
FTUS43 KILX 291700
TAFBMI
TAF
KBMI 291737Z 2918/3018 31017G28KT P6SM OVC015
     FM292100 31016G27KT P6SM OVC020
     FM300300 33014G22KT P6SM OVC025
     FM301100 35012KT P6SM BKN030
     FM301600 02007KT P6SM SCT035 BKN100=

USA.gov is the U.S. government's official web portal to all federal, state and local government web resources and services.